sensor_id;sensor_type;location;lat;lon;timestamp;P1;durP1;ratioP1;P2;durP2;ratioP2
11004;SDS011;5555;59.622;16.556;2022-12-28T00:01:22;2.63;;;0.77;;
11004;SDS011;5555;59.622;16.556;2022-12-28T00:03:50;2.40;;;0.50;;
11004;SDS011;5555;59.622;16.556;2022-12-28T00:06:17;1.03;;;0.70;;
11004;SDS011;5555;59.622;16.556;2022-12-28T00:08:44;1.50;;;0.63;;
11004;SDS011;5555;59.622;16.556;2022-12-28T00:11:11;2.43;;;0.70;;
11004;SDS011;5555;59.622;16.556;2022-12-28T00:13:38;1.27;;;0.70;;
11004;SDS011;5555;59.622;16.556;2022-12-28T00:16:38;1.57;;;0.70;;
11004;SDS011;5555;59.622;16.556;2022-12-28T00:18:58;0.87;;;0.60;;
11004;SDS011;5555;59.622;16.556;2022-12-28T00:21:24;3.00;;;1.07;;
11004;SDS011;5555;59.622;16.556;2022-12-28T00:23:51;2.97;;;0.80;;
11004;SDS011;5555;59.622;16.556;2022-12-28T00:26:18;1.53;;;0.60;;
11004;SDS011;5555;59.622;16.556;2022-12-28T00:28:44;1.83;;;0.60;;
11004;SDS011;5555;59.622;16.556;2022-12-28T00:31:11;3.40;;;0.60;;
11004;SDS011;5555;59.622;16.556;2022-12-28T00:33:37;3.73;;;0.90;;
11004;SDS011;5555;59.622;16.556;2022-12-28T00:36:03;1.40;;;0.60;;
11004;SDS011;5555;59.622;16.556;2022-12-28T00:38:29;2.00;;;0.80;;
11004;SDS011;5555;59.622;16.556;2022-12-28T00:40:56;1.70;;;1.20;;
11004;SDS011;5555;59.622;16.556;2022-12-28T00:43:22;2.20;;;0.63;;
11004;SDS011;5555;59.622;16.556;2022-12-28T00:45:48;1.63;;;0.70;;
11004;SDS011;5555;59.622;16.556;2022-12-28T00:48:14;1.73;;;0.87;;
11004;SDS011;5555;59.622;16.556;2022-12-28T00:50:40;1.80;;;0.60;;
11004;SDS011;5555;59.622;16.556;2022-12-28T00:53:07;3.70;;;0.80;;
11004;SDS011;5555;59.622;16.556;2022-12-28T00:55:33;2.63;;;0.80;;
11004;SDS011;5555;59.622;16.556;2022-12-28T00:57:59;0.77;;;0.63;;
11004;SDS011;5555;59.622;16.556;2022-12-28T01:00:26;3.60;;;0.90;;
11004;SDS011;5555;59.622;16.556;2022-12-28T01:02:52;2.80;;;0.80;;
11004;SDS011;5555;59.622;16.556;2022-12-28T01:05:18;3.67;;;0.80;;
11004;SDS011;5555;59.622;16.556;2022-12-28T01:07:44;1.90;;;0.80;;
11004;SDS011;5555;59.622;16.556;2022-12-28T01:10:10;3.93;;;0.90;;
11004;SDS011;5555;59.622;16.556;2022-12-28T01:12:36;1.80;;;0.73;;
11004;SDS011;5555;59.622;16.556;2022-12-28T01:15:05;2.40;;;0.70;;
11004;SDS011;5555;59.622;16.556;2022-12-28T01:17:33;2.10;;;0.83;;
11004;SDS011;5555;59.622;16.556;2022-12-28T01:19:58;1.60;;;0.97;;
11004;SDS011;5555;59.622;16.556;2022-12-28T01:22:24;2.40;;;0.87;;
11004;SDS011;5555;59.622;16.556;2022-12-28T01:24:51;2.00;;;0.70;;
11004;SDS011;5555;59.622;16.556;2022-12-28T01:27:16;1.80;;;0.50;;
11004;SDS011;5555;59.622;16.556;2022-12-28T01:29:42;4.20;;;1.07;;
11004;SDS011;5555;59.622;16.556;2022-12-28T01:32:08;1.13;;;0.70;;
11004;SDS011;5555;59.622;16.556;2022-12-28T01:34:33;1.00;;;0.70;;
11004;SDS011;5555;59.622;16.556;2022-12-28T01:36:59;0.87;;;0.50;;
11004;SDS011;5555;59.622;16.556;2022-12-28T01:39:25;0.93;;;0.60;;
11004;SDS011;5555;59.622;16.556;2022-12-28T01:41:50;1.87;;;0.70;;
11004;SDS011;5555;59.622;16.556;2022-12-28T01:52:17;2.17;;;0.60;;
11004;SDS011;5555;59.622;16.556;2022-12-28T01:54:51;2.50;;;0.70;;
11004;SDS011;5555;59.622;16.556;2022-12-28T01:57:30;1.53;;;0.80;;
11004;SDS011;5555;59.622;16.556;2022-12-28T02:00:01;3.50;;;0.70;;
11004;SDS011;5555;59.622;16.556;2022-12-28T02:02:30;2.33;;;0.77;;
11004;SDS011;5555;59.622;16.556;2022-12-28T02:04:57;2.30;;;0.80;;
11004;SDS011;5555;59.622;16.556;2022-12-28T02:07:30;1.13;;;0.83;;
11004;SDS011;5555;59.622;16.556;2022-12-28T02:10:20;2.40;;;0.60;;
11004;SDS011;5555;59.622;16.556;2022-12-28T02:12:47;2.77;;;0.67;;
11004;SDS011;5555;59.622;16.556;2022-12-28T02:15:13;1.50;;;0.70;;
11004;SDS011;5555;59.622;16.556;2022-12-28T02:17:39;2.03;;;0.90;;
11004;SDS011;5555;59.622;16.556;2022-12-28T02:20:05;1.37;;;0.67;;
11004;SDS011;5555;59.622;16.556;2022-12-28T02:22:49;1.73;;;0.90;;
11004;SDS011;5555;59.622;16.556;2022-12-28T02:31:22;1.53;;;0.70;;
11004;SDS011;5555;59.622;16.556;2022-12-28T02:33:57;2.93;;;0.73;;
11004;SDS011;5555;59.622;16.556;2022-12-28T02:36:36;2.30;;;0.70;;
11004;SDS011;5555;59.622;16.556;2022-12-28T02:39:14;2.03;;;0.63;;
11004;SDS011;5555;59.622;16.556;2022-12-28T02:41:45;3.13;;;0.70;;
11004;SDS011;5555;59.622;16.556;2022-12-28T02:44:12;0.83;;;0.60;;
11004;SDS011;5555;59.622;16.556;2022-12-28T02:46:58;2.00;;;0.63;;
11004;SDS011;5555;59.622;16.556;2022-12-28T02:49:42;1.33;;;0.80;;
11004;SDS011;5555;59.622;16.556;2022-12-28T02:52:43;0.77;;;0.50;;
11004;SDS011;5555;59.622;16.556;2022-12-28T03:04:19;1.10;;;0.57;;
11004;SDS011;5555;59.622;16.556;2022-12-28T03:07:07;2.73;;;0.80;;
11004;SDS011;5555;59.622;16.556;2022-12-28T03:12:36;2.83;;;0.90;;
11004;SDS011;5555;59.622;16.556;2022-12-28T03:15:09;3.80;;;0.80;;
11004;SDS011;5555;59.622;16.556;2022-12-28T03:17:40;3.60;;;1.33;;
11004;SDS011;5555;59.622;16.556;2022-12-28T03:20:27;1.60;;;0.80;;
11004;SDS011;5555;59.622;16.556;2022-12-28T03:23:18;2.00;;;0.80;;
11004;SDS011;5555;59.622;16.556;2022-12-28T03:26:05;3.43;;;0.80;;
11004;SDS011;5555;59.622;16.556;2022-12-28T03:28:53;2.23;;;0.70;;
11004;SDS011;5555;59.622;16.556;2022-12-28T03:31:39;2.13;;;0.63;;
11004;SDS011;5555;59.622;16.556;2022-12-28T03:34:06;4.07;;;1.20;;
11004;SDS011;5555;59.622;16.556;2022-12-28T03:36:42;2.07;;;1.03;;
11004;SDS011;5555;59.622;16.556;2022-12-28T03:39:23;2.30;;;0.87;;
11004;SDS011;5555;59.622;16.556;2022-12-28T03:42:14;4.50;;;0.97;;
11004;SDS011;5555;59.622;16.556;2022-12-28T03:45:17;3.47;;;1.03;;
11004;SDS011;5555;59.622;16.556;2022-12-28T03:47:45;1.50;;;0.97;;
11004;SDS011;5555;59.622;16.556;2022-12-28T03:50:15;2.67;;;0.90;;
11004;SDS011;5555;59.622;16.556;2022-12-28T03:52:41;3.50;;;0.70;;
11004;SDS011;5555;59.622;16.556;2022-12-28T03:55:07;2.70;;;0.70;;
11004;SDS011;5555;59.622;16.556;2022-12-28T03:57:37;2.03;;;0.90;;
11004;SDS011;5555;59.622;16.556;2022-12-28T04:00:03;4.00;;;0.93;;
11004;SDS011;5555;59.622;16.556;2022-12-28T04:02:30;2.53;;;0.80;;
11004;SDS011;5555;59.622;16.556;2022-12-28T04:04:56;2.97;;;0.80;;
11004;SDS011;5555;59.622;16.556;2022-12-28T04:07:21;2.77;;;1.07;;
11004;SDS011;5555;59.622;16.556;2022-12-28T04:09:47;2.23;;;0.80;;
11004;SDS011;5555;59.622;16.556;2022-12-28T04:12:13;2.63;;;1.00;;
11004;SDS011;5555;59.622;16.556;2022-12-28T04:14:39;1.90;;;0.83;;
11004;SDS011;5555;59.622;16.556;2022-12-28T04:17:04;2.33;;;0.93;;
11004;SDS011;5555;59.622;16.556;2022-12-28T04:19:30;3.00;;;0.90;;
11004;SDS011;5555;59.622;16.556;2022-12-28T04:21:55;2.80;;;1.00;;
11004;SDS011;5555;59.622;16.556;2022-12-28T04:24:21;2.83;;;0.80;;
11004;SDS011;5555;59.622;16.556;2022-12-28T04:26:47;2.67;;;0.93;;
11004;SDS011;5555;59.622;16.556;2022-12-28T04:29:12;2.77;;;0.83;;
11004;SDS011;5555;59.622;16.556;2022-12-28T04:31:38;2.37;;;1.00;;
11004;SDS011;5555;59.622;16.556;2022-12-28T04:34:03;1.10;;;0.67;;
11004;SDS011;5555;59.622;16.556;2022-12-28T04:36:30;4.40;;;1.07;;
11004;SDS011;5555;59.622;16.556;2022-12-28T04:38:57;1.87;;;1.00;;
11004;SDS011;5555;59.622;16.556;2022-12-28T04:41:23;2.77;;;1.00;;
11004;SDS011;5555;59.622;16.556;2022-12-28T04:43:49;4.10;;;1.00;;
11004;SDS011;5555;59.622;16.556;2022-12-28T04:46:15;1.77;;;1.00;;
11004;SDS011;5555;59.622;16.556;2022-12-28T04:48:41;1.93;;;1.10;;
11004;SDS011;5555;59.622;16.556;2022-12-28T04:51:15;2.07;;;1.07;;
11004;SDS011;5555;59.622;16.556;2022-12-28T04:53:46;4.80;;;1.43;;
11004;SDS011;5555;59.622;16.556;2022-12-28T04:56:12;1.57;;;0.90;;
11004;SDS011;5555;59.622;16.556;2022-12-28T04:58:38;3.87;;;1.33;;
11004;SDS011;5555;59.622;16.556;2022-12-28T05:01:15;3.20;;;1.10;;
11004;SDS011;5555;59.622;16.556;2022-12-28T05:03:42;2.77;;;1.33;;
11004;SDS011;5555;59.622;16.556;2022-12-28T05:06:11;2.63;;;1.23;;
11004;SDS011;5555;59.622;16.556;2022-12-28T05:08:41;2.73;;;1.57;;
11004;SDS011;5555;59.622;16.556;2022-12-28T05:11:10;2.90;;;1.00;;
11004;SDS011;5555;59.622;16.556;2022-12-28T05:13:37;3.77;;;1.23;;
11004;SDS011;5555;59.622;16.556;2022-12-28T05:16:04;1.77;;;1.00;;
11004;SDS011;5555;59.622;16.556;2022-12-28T05:18:32;2.43;;;1.17;;
11004;SDS011;5555;59.622;16.556;2022-12-28T05:21:03;3.63;;;1.50;;
11004;SDS011;5555;59.622;16.556;2022-12-28T05:23:31;4.03;;;1.40;;
11004;SDS011;5555;59.622;16.556;2022-12-28T05:25:57;3.03;;;1.37;;
11004;SDS011;5555;59.622;16.556;2022-12-28T05:28:23;3.40;;;1.67;;
11004;SDS011;5555;59.622;16.556;2022-12-28T05:30:50;3.10;;;1.20;;
11004;SDS011;5555;59.622;16.556;2022-12-28T05:33:16;3.77;;;1.20;;
11004;SDS011;5555;59.622;16.556;2022-12-28T05:35:41;4.07;;;1.67;;
11004;SDS011;5555;59.622;16.556;2022-12-28T05:38:07;3.70;;;1.07;;
11004;SDS011;5555;59.622;16.556;2022-12-28T05:40:33;2.43;;;1.20;;
11004;SDS011;5555;59.622;16.556;2022-12-28T05:42:58;3.40;;;1.53;;
11004;SDS011;5555;59.622;16.556;2022-12-28T05:45:24;2.63;;;1.60;;
11004;SDS011;5555;59.622;16.556;2022-12-28T05:47:50;3.63;;;1.40;;
11004;SDS011;5555;59.622;16.556;2022-12-28T05:50:18;4.40;;;1.67;;
11004;SDS011;5555;59.622;16.556;2022-12-28T05:52:43;5.53;;;1.80;;
11004;SDS011;5555;59.622;16.556;2022-12-28T05:55:09;4.13;;;2.13;;
11004;SDS011;5555;59.622;16.556;2022-12-28T05:57:35;5.47;;;1.40;;
11004;SDS011;5555;59.622;16.556;2022-12-28T06:00:00;6.00;;;1.70;;
11004;SDS011;5555;59.622;16.556;2022-12-28T06:02:26;4.17;;;1.40;;
11004;SDS011;5555;59.622;16.556;2022-12-28T06:04:52;1.87;;;1.33;;
11004;SDS011;5555;59.622;16.556;2022-12-28T06:07:18;3.13;;;1.30;;
11004;SDS011;5555;59.622;16.556;2022-12-28T06:09:44;3.50;;;1.83;;
11004;SDS011;5555;59.622;16.556;2022-12-28T06:12:10;2.00;;;1.40;;
11004;SDS011;5555;59.622;16.556;2022-12-28T06:14:35;6.53;;;2.20;;
11004;SDS011;5555;59.622;16.556;2022-12-28T06:17:01;3.80;;;1.67;;
11004;SDS011;5555;59.622;16.556;2022-12-28T06:19:27;6.10;;;1.60;;
11004;SDS011;5555;59.622;16.556;2022-12-28T06:21:52;3.17;;;1.47;;
11004;SDS011;5555;59.622;16.556;2022-12-28T06:24:18;4.63;;;1.53;;
11004;SDS011;5555;59.622;16.556;2022-12-28T06:26:44;4.70;;;2.00;;
11004;SDS011;5555;59.622;16.556;2022-12-28T06:29:10;2.67;;;1.67;;
11004;SDS011;5555;59.622;16.556;2022-12-28T06:31:36;3.33;;;1.47;;
11004;SDS011;5555;59.622;16.556;2022-12-28T06:34:04;5.43;;;1.73;;
11004;SDS011;5555;59.622;16.556;2022-12-28T06:36:32;2.93;;;1.70;;
11004;SDS011;5555;59.622;16.556;2022-12-28T06:39:03;4.20;;;1.77;;
11004;SDS011;5555;59.622;16.556;2022-12-28T06:41:30;3.23;;;1.73;;
11004;SDS011;5555;59.622;16.556;2022-12-28T06:43:57;4.23;;;1.70;;
11004;SDS011;5555;59.622;16.556;2022-12-28T06:46:25;3.87;;;1.87;;
11004;SDS011;5555;59.622;16.556;2022-12-28T06:48:52;2.93;;;1.67;;
11004;SDS011;5555;59.622;16.556;2022-12-28T06:51:26;5.50;;;1.83;;
11004;SDS011;5555;59.622;16.556;2022-12-28T06:53:53;4.80;;;1.83;;
11004;SDS011;5555;59.622;16.556;2022-12-28T06:56:21;8.87;;;2.17;;
11004;SDS011;5555;59.622;16.556;2022-12-28T06:58:49;3.27;;;1.60;;
11004;SDS011;5555;59.622;16.556;2022-12-28T07:01:17;4.77;;;1.90;;
11004;SDS011;5555;59.622;16.556;2022-12-28T07:03:45;4.90;;;2.17;;
11004;SDS011;5555;59.622;16.556;2022-12-28T07:06:12;4.20;;;2.03;;
11004;SDS011;5555;59.622;16.556;2022-12-28T07:08:40;4.33;;;2.03;;
11004;SDS011;5555;59.622;16.556;2022-12-28T07:11:07;3.57;;;1.70;;
11004;SDS011;5555;59.622;16.556;2022-12-28T07:13:35;9.83;;;1.97;;
11004;SDS011;5555;59.622;16.556;2022-12-28T07:16:05;4.93;;;1.60;;
11004;SDS011;5555;59.622;16.556;2022-12-28T07:18:34;5.27;;;1.90;;
11004;SDS011;5555;59.622;16.556;2022-12-28T07:21:00;7.47;;;2.10;;
11004;SDS011;5555;59.622;16.556;2022-12-28T07:23:28;2.97;;;1.63;;
11004;SDS011;5555;59.622;16.556;2022-12-28T07:26:03;4.40;;;2.57;;
11004;SDS011;5555;59.622;16.556;2022-12-28T07:28:37;4.40;;;2.10;;
11004;SDS011;5555;59.622;16.556;2022-12-28T07:31:08;3.93;;;2.17;;
11004;SDS011;5555;59.622;16.556;2022-12-28T07:33:36;6.63;;;2.20;;
11004;SDS011;5555;59.622;16.556;2022-12-28T07:36:02;3.73;;;2.43;;
11004;SDS011;5555;59.622;16.556;2022-12-28T07:38:30;3.90;;;2.20;;
11004;SDS011;5555;59.622;16.556;2022-12-28T07:41:09;6.63;;;2.50;;
11004;SDS011;5555;59.622;16.556;2022-12-28T07:43:37;7.70;;;2.83;;
11004;SDS011;5555;59.622;16.556;2022-12-28T07:46:04;4.47;;;2.37;;
11004;SDS011;5555;59.622;16.556;2022-12-28T07:48:31;5.90;;;2.80;;
11004;SDS011;5555;59.622;16.556;2022-12-28T07:51:15;10.73;;;3.87;;
11004;SDS011;5555;59.622;16.556;2022-12-28T07:53:54;8.83;;;2.70;;
11004;SDS011;5555;59.622;16.556;2022-12-28T07:56:22;5.33;;;3.33;;
11004;SDS011;5555;59.622;16.556;2022-12-28T07:58:49;7.40;;;3.40;;
11004;SDS011;5555;59.622;16.556;2022-12-28T08:01:17;6.63;;;2.90;;
11004;SDS011;5555;59.622;16.556;2022-12-28T08:03:44;9.20;;;3.40;;
11004;SDS011;5555;59.622;16.556;2022-12-28T08:06:14;7.97;;;2.97;;
11004;SDS011;5555;59.622;16.556;2022-12-28T08:08:44;7.53;;;3.90;;
11004;SDS011;5555;59.622;16.556;2022-12-28T08:11:13;6.10;;;2.60;;
11004;SDS011;5555;59.622;16.556;2022-12-28T08:13:41;5.73;;;2.60;;
11004;SDS011;5555;59.622;16.556;2022-12-28T08:16:12;9.80;;;3.43;;
11004;SDS011;5555;59.622;16.556;2022-12-28T08:18:39;5.23;;;3.00;;
11004;SDS011;5555;59.622;16.556;2022-12-28T08:21:11;8.70;;;2.93;;
11004;SDS011;5555;59.622;16.556;2022-12-28T08:23:38;7.87;;;3.00;;
11004;SDS011;5555;59.622;16.556;2022-12-28T08:26:05;9.50;;;3.30;;
11004;SDS011;5555;59.622;16.556;2022-12-28T08:28:32;6.00;;;3.00;;
11004;SDS011;5555;59.622;16.556;2022-12-28T08:31:03;3.80;;;2.97;;
11004;SDS011;5555;59.622;16.556;2022-12-28T08:33:37;4.73;;;2.77;;
11004;SDS011;5555;59.622;16.556;2022-12-28T08:36:03;8.67;;;2.80;;
11004;SDS011;5555;59.622;16.556;2022-12-28T08:38:29;5.57;;;2.57;;
11004;SDS011;5555;59.622;16.556;2022-12-28T08:40:56;5.20;;;2.27;;
11004;SDS011;5555;59.622;16.556;2022-12-28T08:43:23;4.27;;;2.37;;
11004;SDS011;5555;59.622;16.556;2022-12-28T08:45:55;8.43;;;2.80;;
11004;SDS011;5555;59.622;16.556;2022-12-28T08:48:32;7.47;;;2.57;;
11004;SDS011;5555;59.622;16.556;2022-12-28T08:51:03;6.13;;;2.43;;
11004;SDS011;5555;59.622;16.556;2022-12-28T08:53:30;4.40;;;2.40;;
11004;SDS011;5555;59.622;16.556;2022-12-28T08:56:32;5.30;;;2.60;;
11004;SDS011;5555;59.622;16.556;2022-12-28T08:58:49;5.47;;;2.63;;
11004;SDS011;5555;59.622;16.556;2022-12-28T09:01:17;12.20;;;4.40;;
11004;SDS011;5555;59.622;16.556;2022-12-28T09:03:45;6.10;;;2.90;;
11004;SDS011;5555;59.622;16.556;2022-12-28T09:06:13;3.33;;;2.23;;
11004;SDS011;5555;59.622;16.556;2022-12-28T09:08:47;18.17;;;3.07;;
11004;SDS011;5555;59.622;16.556;2022-12-28T09:11:14;5.37;;;2.77;;
11004;SDS011;5555;59.622;16.556;2022-12-28T09:13:40;5.30;;;3.07;;
11004;SDS011;5555;59.622;16.556;2022-12-28T09:16:10;5.60;;;3.50;;
11004;SDS011;5555;59.622;16.556;2022-12-28T09:18:37;6.60;;;3.93;;
11004;SDS011;5555;59.622;16.556;2022-12-28T09:21:08;6.87;;;2.93;;
11004;SDS011;5555;59.622;16.556;2022-12-28T09:23:35;7.83;;;2.93;;
11004;SDS011;5555;59.622;16.556;2022-12-28T09:26:07;5.43;;;2.57;;
11004;SDS011;5555;59.622;16.556;2022-12-28T09:28:34;6.83;;;2.67;;
11004;SDS011;5555;59.622;16.556;2022-12-28T09:31:01;8.77;;;3.07;;
11004;SDS011;5555;59.622;16.556;2022-12-28T09:33:30;5.60;;;3.40;;
11004;SDS011;5555;59.622;16.556;2022-12-28T09:36:15;9.70;;;3.10;;
11004;SDS011;5555;59.622;16.556;2022-12-28T09:38:41;7.30;;;3.33;;
11004;SDS011;5555;59.622;16.556;2022-12-28T09:44:03;5.63;;;2.83;;
11004;SDS011;5555;59.622;16.556;2022-12-28T09:46:40;4.70;;;2.90;;
11004;SDS011;5555;59.622;16.556;2022-12-28T09:49:19;6.03;;;3.13;;
11004;SDS011;5555;59.622;16.556;2022-12-28T09:51:53;6.23;;;3.50;;
11004;SDS011;5555;59.622;16.556;2022-12-28T09:54:28;5.57;;;3.20;;
11004;SDS011;5555;59.622;16.556;2022-12-28T09:56:54;9.40;;;3.37;;
11004;SDS011;5555;59.622;16.556;2022-12-28T09:59:20;5.70;;;3.13;;
11004;SDS011;5555;59.622;16.556;2022-12-28T10:01:54;8.27;;;3.10;;
11004;SDS011;5555;59.622;16.556;2022-12-28T10:04:24;7.13;;;3.83;;
11004;SDS011;5555;59.622;16.556;2022-12-28T10:06:50;10.40;;;4.60;;
11004;SDS011;5555;59.622;16.556;2022-12-28T10:09:26;9.20;;;3.90;;
11004;SDS011;5555;59.622;16.556;2022-12-28T10:11:55;9.00;;;4.07;;
11004;SDS011;5555;59.622;16.556;2022-12-28T10:14:24;6.93;;;3.57;;
11004;SDS011;5555;59.622;16.556;2022-12-28T10:16:52;9.27;;;4.33;;
11004;SDS011;5555;59.622;16.556;2022-12-28T10:19:20;8.30;;;3.47;;
11004;SDS011;5555;59.622;16.556;2022-12-28T10:21:50;4.53;;;3.03;;
11004;SDS011;5555;59.622;16.556;2022-12-28T10:24:27;7.33;;;3.53;;
11004;SDS011;5555;59.622;16.556;2022-12-28T10:26:58;8.23;;;3.40;;
11004;SDS011;5555;59.622;16.556;2022-12-28T10:29:25;6.57;;;3.70;;
11004;SDS011;5555;59.622;16.556;2022-12-28T10:32:02;7.17;;;3.90;;
11004;SDS011;5555;59.622;16.556;2022-12-28T10:34:31;6.77;;;3.67;;
11004;SDS011;5555;59.622;16.556;2022-12-28T10:37:06;5.10;;;3.47;;
11004;SDS011;5555;59.622;16.556;2022-12-28T10:39:38;9.10;;;3.70;;
11004;SDS011;5555;59.622;16.556;2022-12-28T10:42:04;7.70;;;3.03;;
11004;SDS011;5555;59.622;16.556;2022-12-28T10:44:46;8.90;;;3.70;;
11004;SDS011;5555;59.622;16.556;2022-12-28T10:47:25;8.13;;;3.13;;
11004;SDS011;5555;59.622;16.556;2022-12-28T10:49:54;7.57;;;2.87;;
11004;SDS011;5555;59.622;16.556;2022-12-28T10:52:20;6.00;;;3.43;;
11004;SDS011;5555;59.622;16.556;2022-12-28T10:54:46;5.87;;;3.27;;
11004;SDS011;5555;59.622;16.556;2022-12-28T10:57:16;11.63;;;2.80;;
11004;SDS011;5555;59.622;16.556;2022-12-28T10:59:41;7.90;;;2.80;;
11004;SDS011;5555;59.622;16.556;2022-12-28T11:04:54;8.03;;;3.00;;
11004;SDS011;5555;59.622;16.556;2022-12-28T11:10:12;5.43;;;2.40;;
11004;SDS011;5555;59.622;16.556;2022-12-28T11:12:48;7.57;;;3.03;;
11004;SDS011;5555;59.622;16.556;2022-12-28T11:15:18;4.13;;;2.63;;
11004;SDS011;5555;59.622;16.556;2022-12-28T11:17:59;5.00;;;2.10;;
11004;SDS011;5555;59.622;16.556;2022-12-28T11:20:37;5.83;;;2.53;;
11004;SDS011;5555;59.622;16.556;2022-12-28T11:23:07;5.00;;;2.30;;
11004;SDS011;5555;59.622;16.556;2022-12-28T11:25:33;10.37;;;4.00;;
11004;SDS011;5555;59.622;16.556;2022-12-28T11:28:04;7.13;;;3.20;;
11004;SDS011;5555;59.622;16.556;2022-12-28T11:30:35;7.73;;;3.07;;
11004;SDS011;5555;59.622;16.556;2022-12-28T11:33:00;8.07;;;3.00;;
11004;SDS011;5555;59.622;16.556;2022-12-28T11:35:30;6.77;;;3.43;;
11004;SDS011;5555;59.622;16.556;2022-12-28T11:37:58;6.20;;;2.70;;
11004;SDS011;5555;59.622;16.556;2022-12-28T11:45:55;7.40;;;2.37;;
11004;SDS011;5555;59.622;16.556;2022-12-28T11:51:14;4.10;;;2.10;;
11004;SDS011;5555;59.622;16.556;2022-12-28T12:01:08;6.27;;;2.00;;
11004;SDS011;5555;59.622;16.556;2022-12-28T12:11:56;3.60;;;1.70;;
11004;SDS011;5555;59.622;16.556;2022-12-28T12:14:25;2.70;;;1.90;;
11004;SDS011;5555;59.622;16.556;2022-12-28T12:17:02;3.53;;;2.27;;
11004;SDS011;5555;59.622;16.556;2022-12-28T12:19:36;3.53;;;1.90;;
11004;SDS011;5555;59.622;16.556;2022-12-28T12:22:23;3.30;;;1.70;;
11004;SDS011;5555;59.622;16.556;2022-12-28T12:24:55;5.23;;;1.93;;
11004;SDS011;5555;59.622;16.556;2022-12-28T12:27:42;5.03;;;2.07;;
11004;SDS011;5555;59.622;16.556;2022-12-28T12:30:13;6.23;;;2.53;;
11004;SDS011;5555;59.622;16.556;2022-12-28T12:35:15;4.40;;;2.10;;
11004;SDS011;5555;59.622;16.556;2022-12-28T12:41:23;4.67;;;2.00;;
11004;SDS011;5555;59.622;16.556;2022-12-28T12:47:01;4.70;;;1.63;;
11004;SDS011;5555;59.622;16.556;2022-12-28T12:50:34;4.40;;;2.30;;
11004;SDS011;5555;59.622;16.556;2022-12-28T12:56:01;5.13;;;2.30;;
11004;SDS011;5555;59.622;16.556;2022-12-28T12:58:32;4.37;;;1.77;;
11004;SDS011;5555;59.622;16.556;2022-12-28T13:03:49;4.23;;;2.07;;
11004;SDS011;5555;59.622;16.556;2022-12-28T13:06:18;6.63;;;2.20;;
11004;SDS011;5555;59.622;16.556;2022-12-28T13:11:18;3.70;;;2.10;;
11004;SDS011;5555;59.622;16.556;2022-12-28T13:13:46;6.07;;;2.33;;
11004;SDS011;5555;59.622;16.556;2022-12-28T13:16:15;3.00;;;2.10;;
11004;SDS011;5555;59.622;16.556;2022-12-28T13:18:52;3.63;;;2.10;;
11004;SDS011;5555;59.622;16.556;2022-12-28T13:21:18;4.37;;;2.20;;
11004;SDS011;5555;59.622;16.556;2022-12-28T13:23:45;3.47;;;1.67;;
11004;SDS011;5555;59.622;16.556;2022-12-28T13:26:11;3.90;;;1.93;;
11004;SDS011;5555;59.622;16.556;2022-12-28T13:28:44;4.90;;;2.07;;
11004;SDS011;5555;59.622;16.556;2022-12-28T13:31:22;6.23;;;2.33;;
11004;SDS011;5555;59.622;16.556;2022-12-28T13:33:58;4.10;;;2.00;;
11004;SDS011;5555;59.622;16.556;2022-12-28T13:39:16;4.10;;;2.03;;
11004;SDS011;5555;59.622;16.556;2022-12-28T13:41:53;3.53;;;2.17;;
11004;SDS011;5555;59.622;16.556;2022-12-28T13:46:59;3.97;;;2.47;;
11004;SDS011;5555;59.622;16.556;2022-12-28T13:52:20;7.43;;;2.13;;
11004;SDS011;5555;59.622;16.556;2022-12-28T13:54:53;5.57;;;2.33;;
11004;SDS011;5555;59.622;16.556;2022-12-28T13:57:23;4.13;;;2.13;;
11004;SDS011;5555;59.622;16.556;2022-12-28T13:59:50;6.87;;;2.30;;
11004;SDS011;5555;59.622;16.556;2022-12-28T14:02:19;5.07;;;2.23;;
11004;SDS011;5555;59.622;16.556;2022-12-28T14:04:46;3.13;;;2.37;;
11004;SDS011;5555;59.622;16.556;2022-12-28T14:07:14;2.97;;;2.20;;
11004;SDS011;5555;59.622;16.556;2022-12-28T14:09:42;4.60;;;2.30;;
11004;SDS011;5555;59.622;16.556;2022-12-28T14:12:10;4.37;;;2.07;;
11004;SDS011;5555;59.622;16.556;2022-12-28T14:14:36;4.90;;;2.03;;
11004;SDS011;5555;59.622;16.556;2022-12-28T14:17:03;3.40;;;2.10;;
11004;SDS011;5555;59.622;16.556;2022-12-28T14:19:31;4.83;;;2.10;;
11004;SDS011;5555;59.622;16.556;2022-12-28T14:21:58;4.57;;;2.17;;
11004;SDS011;5555;59.622;16.556;2022-12-28T14:24:24;5.43;;;2.13;;
11004;SDS011;5555;59.622;16.556;2022-12-28T14:26:54;3.63;;;1.87;;
11004;SDS011;5555;59.622;16.556;2022-12-28T14:29:31;5.50;;;2.20;;
11004;SDS011;5555;59.622;16.556;2022-12-28T14:31:59;6.93;;;2.67;;
11004;SDS011;5555;59.622;16.556;2022-12-28T14:34:32;6.37;;;2.13;;
11004;SDS011;5555;59.622;16.556;2022-12-28T14:37:00;4.17;;;2.40;;
11004;SDS011;5555;59.622;16.556;2022-12-28T14:42:02;5.33;;;2.63;;
11004;SDS011;5555;59.622;16.556;2022-12-28T14:44:37;8.33;;;2.73;;
11004;SDS011;5555;59.622;16.556;2022-12-28T14:50:15;6.90;;;2.60;;
11004;SDS011;5555;59.622;16.556;2022-12-28T14:52:46;6.20;;;3.20;;
11004;SDS011;5555;59.622;16.556;2022-12-28T14:55:19;8.53;;;2.87;;
11004;SDS011;5555;59.622;16.556;2022-12-28T14:57:48;4.37;;;2.93;;
11004;SDS011;5555;59.622;16.556;2022-12-28T15:00:38;7.67;;;3.03;;
11004;SDS011;5555;59.622;16.556;2022-12-28T15:03:39;4.97;;;2.93;;
11004;SDS011;5555;59.622;16.556;2022-12-28T15:06:11;4.67;;;3.20;;
11004;SDS011;5555;59.622;16.556;2022-12-28T15:08:37;6.63;;;3.70;;
11004;SDS011;5555;59.622;16.556;2022-12-28T15:11:02;5.73;;;3.60;;
11004;SDS011;5555;59.622;16.556;2022-12-28T15:13:28;4.20;;;3.40;;
11004;SDS011;5555;59.622;16.556;2022-12-28T15:15:58;7.40;;;4.43;;
11004;SDS011;5555;59.622;16.556;2022-12-28T15:18:26;7.90;;;4.53;;
11004;SDS011;5555;59.622;16.556;2022-12-28T15:20:53;5.87;;;3.80;;
11004;SDS011;5555;59.622;16.556;2022-12-28T15:23:19;7.53;;;3.80;;
11004;SDS011;5555;59.622;16.556;2022-12-28T15:25:45;6.60;;;3.20;;
11004;SDS011;5555;59.622;16.556;2022-12-28T15:28:11;8.13;;;4.23;;
11004;SDS011;5555;59.622;16.556;2022-12-28T15:30:38;6.93;;;3.63;;
11004;SDS011;5555;59.622;16.556;2022-12-28T15:33:05;8.23;;;3.97;;
11004;SDS011;5555;59.622;16.556;2022-12-28T15:35:31;7.03;;;4.70;;
11004;SDS011;5555;59.622;16.556;2022-12-28T15:37:57;7.93;;;4.30;;
11004;SDS011;5555;59.622;16.556;2022-12-28T15:40:23;8.07;;;4.10;;
11004;SDS011;5555;59.622;16.556;2022-12-28T15:42:49;8.67;;;5.00;;
11004;SDS011;5555;59.622;16.556;2022-12-28T15:45:15;7.53;;;4.23;;
11004;SDS011;5555;59.622;16.556;2022-12-28T15:47:41;5.93;;;4.00;;
11004;SDS011;5555;59.622;16.556;2022-12-28T15:50:07;8.23;;;4.10;;
11004;SDS011;5555;59.622;16.556;2022-12-28T15:52:33;5.60;;;3.30;;
11004;SDS011;5555;59.622;16.556;2022-12-28T15:54:59;5.10;;;2.60;;
11004;SDS011;5555;59.622;16.556;2022-12-28T15:57:25;9.23;;;3.17;;
11004;SDS011;5555;59.622;16.556;2022-12-28T15:59:52;5.17;;;3.07;;
11004;SDS011;5555;59.622;16.556;2022-12-28T16:02:18;7.73;;;3.70;;
11004;SDS011;5555;59.622;16.556;2022-12-28T16:04:44;8.40;;;3.63;;
11004;SDS011;5555;59.622;16.556;2022-12-28T16:07:10;5.43;;;2.70;;
11004;SDS011;5555;59.622;16.556;2022-12-28T16:09:35;5.83;;;2.80;;
11004;SDS011;5555;59.622;16.556;2022-12-28T16:12:01;6.53;;;2.17;;
11004;SDS011;5555;59.622;16.556;2022-12-28T16:14:27;6.40;;;2.50;;
11004;SDS011;5555;59.622;16.556;2022-12-28T16:16:53;4.57;;;2.87;;
11004;SDS011;5555;59.622;16.556;2022-12-28T16:19:18;5.63;;;2.73;;
11004;SDS011;5555;59.622;16.556;2022-12-28T16:21:44;3.07;;;2.47;;
11004;SDS011;5555;59.622;16.556;2022-12-28T16:24:10;4.80;;;2.20;;
11004;SDS011;5555;59.622;16.556;2022-12-28T16:26:35;5.03;;;1.93;;
11004;SDS011;5555;59.622;16.556;2022-12-28T16:29:01;4.60;;;1.87;;
11004;SDS011;5555;59.622;16.556;2022-12-28T16:31:31;4.03;;;2.03;;
11004;SDS011;5555;59.622;16.556;2022-12-28T16:34:02;5.10;;;2.03;;